sensor_id;sensor_type;location;lat;lon;timestamp;pressure;altitude;pressure_sealevel;temperature
23208;BMP180;11773;52.570;13.052;2022-11-20T00:00:20;100827.00;;;7.60
23208;BMP180;11773;52.570;13.052;2022-11-20T00:02:49;100835.00;;;7.70
23208;BMP180;11773;52.570;13.052;2022-11-20T00:05:19;100827.00;;;7.60
23208;BMP180;11773;52.570;13.052;2022-11-20T00:07:49;100827.00;;;7.60
23208;BMP180;11773;52.570;13.052;2022-11-20T00:10:18;100825.00;;;7.60
23208;BMP180;11773;52.570;13.052;2022-11-20T00:12:48;100833.00;;;7.70
23208;BMP180;11773;52.570;13.052;2022-11-20T00:15:19;100823.00;;;7.60
23208;BMP180;11773;52.570;13.052;2022-11-20T00:17:48;100818.00;;;7.60
23208;BMP180;11773;52.570;13.052;2022-11-20T00:20:17;100817.00;;;7.60
23208;BMP180;11773;52.570;13.052;2022-11-20T00:22:47;100821.00;;;7.60
23208;BMP180;11773;52.570;13.052;2022-11-20T00:25:17;100835.00;;;7.60
23208;BMP180;11773;52.570;13.052;2022-11-20T00:27:46;100822.00;;;7.60
23208;BMP180;11773;52.570;13.052;2022-11-20T00:30:16;100825.00;;;7.60
23208;BMP180;11773;52.570;13.052;2022-11-20T00:32:45;100817.00;;;7.60
23208;BMP180;11773;52.570;13.052;2022-11-20T00:35:15;100819.00;;;7.60
23208;BMP180;11773;52.570;13.052;2022-11-20T00:37:44;100821.00;;;7.60
23208;BMP180;11773;52.570;13.052;2022-11-20T00:40:14;100823.00;;;7.60
23208;BMP180;11773;52.570;13.052;2022-11-20T00:42:43;100821.00;;;7.60
23208;BMP180;11773;52.570;13.052;2022-11-20T00:45:13;100821.00;;;7.60
23208;BMP180;11773;52.570;13.052;2022-11-20T00:47:42;100823.00;;;7.60
23208;BMP180;11773;52.570;13.052;2022-11-20T00:50:11;100824.00;;;7.60
23208;BMP180;11773;52.570;13.052;2022-11-20T00:52:41;100821.00;;;7.60
23208;BMP180;11773;52.570;13.052;2022-11-20T00:55:10;100817.00;;;7.60
23208;BMP180;11773;52.570;13.052;2022-11-20T00:57:40;100816.00;;;7.60
23208;BMP180;11773;52.570;13.052;2022-11-20T01:00:10;100809.00;;;7.60
23208;BMP180;11773;52.570;13.052;2022-11-20T01:02:39;100829.00;;;7.60
23208;BMP180;11773;52.570;13.052;2022-11-20T01:05:09;100805.00;;;7.60
23208;BMP180;11773;52.570;13.052;2022-11-20T01:07:38;100812.00;;;7.60
23208;BMP180;11773;52.570;13.052;2022-11-20T01:10:08;100812.00;;;7.60
23208;BMP180;11773;52.570;13.052;2022-11-20T01:12:37;100818.00;;;7.60
23208;BMP180;11773;52.570;13.052;2022-11-20T01:15:07;100823.00;;;7.60
23208;BMP180;11773;52.570;13.052;2022-11-20T01:17:37;100824.00;;;7.60
23208;BMP180;11773;52.570;13.052;2022-11-20T01:20:07;100811.00;;;7.60
23208;BMP180;11773;52.570;13.052;2022-11-20T01:22:37;100812.00;;;7.60
23208;BMP180;11773;52.570;13.052;2022-11-20T01:25:07;100813.00;;;7.60
23208;BMP180;11773;52.570;13.052;2022-11-20T01:27:37;100815.00;;;7.60
23208;BMP180;11773;52.570;13.052;2022-11-20T01:30:07;100804.00;;;7.60
23208;BMP180;11773;52.570;13.052;2022-11-20T01:32:37;100804.00;;;7.60
23208;BMP180;11773;52.570;13.052;2022-11-20T01:35:06;100797.00;;;7.60
23208;BMP180;11773;52.570;13.052;2022-11-20T01:37:37;100801.00;;;7.60
23208;BMP180;11773;52.570;13.052;2022-11-20T01:40:08;100794.00;;;7.60
23208;BMP180;11773;52.570;13.052;2022-11-20T01:42:37;100797.00;;;7.60
23208;BMP180;11773;52.570;13.052;2022-11-20T01:46:04;100796.00;;;7.60
23208;BMP180;11773;52.570;13.052;2022-11-20T01:49:02;100802.00;;;7.50
23208;BMP180;11773;52.570;13.052;2022-11-20T01:51:32;100808.00;;;7.50
23208;BMP180;11773;52.570;13.052;2022-11-20T01:54:05;100799.00;;;7.50
23208;BMP180;11773;52.570;13.052;2022-11-20T01:56:38;100789.00;;;7.50
23208;BMP180;11773;52.570;13.052;2022-11-20T01:59:11;100806.00;;;7.50
23208;BMP180;11773;52.570;13.052;2022-11-20T02:01:41;100793.00;;;7.50
23208;BMP180;11773;52.570;13.052;2022-11-20T02:04:13;100792.00;;;7.50
23208;BMP180;11773;52.570;13.052;2022-11-20T02:07:01;100791.00;;;7.50
23208;BMP180;11773;52.570;13.052;2022-11-20T02:09:32;100785.00;;;7.50
23208;BMP180;11773;52.570;13.052;2022-11-20T02:12:02;100785.00;;;7.50
23208;BMP180;11773;52.570;13.052;2022-11-20T02:14:32;100797.00;;;7.50
23208;BMP180;11773;52.570;13.052;2022-11-20T02:17:01;100778.00;;;7.50
23208;BMP180;11773;52.570;13.052;2022-11-20T02:19:32;100779.00;;;7.50
23208;BMP180;11773;52.570;13.052;2022-11-20T02:22:13;100778.00;;;7.50
23208;BMP180;11773;52.570;13.052;2022-11-20T02:24:44;100774.00;;;7.50
23208;BMP180;11773;52.570;13.052;2022-11-20T02:27:16;100786.00;;;7.50
23208;BMP180;11773;52.570;13.052;2022-11-20T02:32:35;100766.00;;;7.50
23208;BMP180;11773;52.570;13.052;2022-11-20T02:37:57;100769.00;;;7.40
23208;BMP180;11773;52.570;13.052;2022-11-20T02:40:27;100779.00;;;7.40
23208;BMP180;11773;52.570;13.052;2022-11-20T02:42:57;100778.00;;;7.40
23208;BMP180;11773;52.570;13.052;2022-11-20T02:45:27;100776.00;;;7.40
23208;BMP180;11773;52.570;13.052;2022-11-20T02:47:56;100787.00;;;7.40
23208;BMP180;11773;52.570;13.052;2022-11-20T02:50:26;100776.00;;;7.40
23208;BMP180;11773;52.570;13.052;2022-11-20T02:52:55;100777.00;;;7.40
23208;BMP180;11773;52.570;13.052;2022-11-20T02:55:25;100777.00;;;7.40
23208;BMP180;11773;52.570;13.052;2022-11-20T02:57:54;100781.00;;;7.40
23208;BMP180;11773;52.570;13.052;2022-11-20T03:00:24;100769.00;;;7.40
23208;BMP180;11773;52.570;13.052;2022-11-20T03:02:53;100772.00;;;7.40
23208;BMP180;11773;52.570;13.052;2022-11-20T03:05:23;100780.00;;;7.40
23208;BMP180;11773;52.570;13.052;2022-11-20T03:07:52;100768.00;;;7.40
23208;BMP180;11773;52.570;13.052;2022-11-20T03:10:22;100772.00;;;7.40
23208;BMP180;11773;52.570;13.052;2022-11-20T03:12:55;100777.00;;;7.40
23208;BMP180;11773;52.570;13.052;2022-11-20T03:15:25;100760.00;;;7.40
23208;BMP180;11773;52.570;13.052;2022-11-20T03:17:56;100754.00;;;7.40
23208;BMP180;11773;52.570;13.052;2022-11-20T03:20:25;100772.00;;;7.40
23208;BMP180;11773;52.570;13.052;2022-11-20T03:22:55;100754.00;;;7.40
23208;BMP180;11773;52.570;13.052;2022-11-20T03:25:24;100756.00;;;7.40
23208;BMP180;11773;52.570;13.052;2022-11-20T03:27:54;100761.00;;;7.40
23208;BMP180;11773;52.570;13.052;2022-11-20T03:30:24;100755.00;;;7.40
23208;BMP180;11773;52.570;13.052;2022-11-20T03:32:55;100747.00;;;7.40
23208;BMP180;11773;52.570;13.052;2022-11-20T03:35:25;100746.00;;;7.30
23208;BMP180;11773;52.570;13.052;2022-11-20T03:37:54;100751.00;;;7.30
23208;BMP180;11773;52.570;13.052;2022-11-20T03:40:23;100746.00;;;7.30
23208;BMP180;11773;52.570;13.052;2022-11-20T03:42:53;100746.00;;;7.30
23208;BMP180;11773;52.570;13.052;2022-11-20T03:45:22;100745.00;;;7.30
23208;BMP180;11773;52.570;13.052;2022-11-20T03:47:52;100733.00;;;7.30
23208;BMP180;11773;52.570;13.052;2022-11-20T03:50:21;100741.00;;;7.30
23208;BMP180;11773;52.570;13.052;2022-11-20T03:52:51;100746.00;;;7.30
23208;BMP180;11773;52.570;13.052;2022-11-20T03:55:20;100746.00;;;7.30
23208;BMP180;11773;52.570;13.052;2022-11-20T03:57:50;100746.00;;;7.30
23208;BMP180;11773;52.570;13.052;2022-11-20T04:00:19;100737.00;;;7.20
23208;BMP180;11773;52.570;13.052;2022-11-20T04:02:49;100744.00;;;7.20
23208;BMP180;11773;52.570;13.052;2022-11-20T04:05:18;100744.00;;;7.20
23208;BMP180;11773;52.570;13.052;2022-11-20T04:07:47;100738.00;;;7.20
23208;BMP180;11773;52.570;13.052;2022-11-20T04:10:17;100752.00;;;7.20
23208;BMP180;11773;52.570;13.052;2022-11-20T04:12:46;100737.00;;;7.20
23208;BMP180;11773;52.570;13.052;2022-11-20T04:15:16;100733.00;;;7.20
23208;BMP180;11773;52.570;13.052;2022-11-20T04:17:46;100729.00;;;7.20
23208;BMP180;11773;52.570;13.052;2022-11-20T04:20:15;100741.00;;;7.20
23208;BMP180;11773;52.570;13.052;2022-11-20T04:22:45;100740.00;;;7.20
23208;BMP180;11773;52.570;13.052;2022-11-20T04:25:14;100738.00;;;7.10
23208;BMP180;11773;52.570;13.052;2022-11-20T04:27:44;100726.00;;;7.20
23208;BMP180;11773;52.570;13.052;2022-11-20T04:30:13;100729.00;;;7.20
23208;BMP180;11773;52.570;13.052;2022-11-20T04:32:43;100745.00;;;7.20
23208;BMP180;11773;52.570;13.052;2022-11-20T04:35:12;100735.00;;;7.20
23208;BMP180;11773;52.570;13.052;2022-11-20T04:37:41;100729.00;;;7.20
23208;BMP180;11773;52.570;13.052;2022-11-20T04:40:11;100741.00;;;7.20
23208;BMP180;11773;52.570;13.052;2022-11-20T04:42:41;100730.00;;;7.20
23208;BMP180;11773;52.570;13.052;2022-11-20T04:45:10;100730.00;;;7.20
23208;BMP180;11773;52.570;13.052;2022-11-20T04:47:40;100734.00;;;7.20
23208;BMP180;11773;52.570;13.052;2022-11-20T04:50:10;100732.00;;;7.20
23208;BMP180;11773;52.570;13.052;2022-11-20T04:52:39;100733.00;;;7.20
23208;BMP180;11773;52.570;13.052;2022-11-20T04:55:09;100725.00;;;7.20
23208;BMP180;11773;52.570;13.052;2022-11-20T04:57:38;100731.00;;;7.20
23208;BMP180;11773;52.570;13.052;2022-11-20T05:00:08;100733.00;;;7.20
23208;BMP180;11773;52.570;13.052;2022-11-20T05:02:38;100737.00;;;7.20
23208;BMP180;11773;52.570;13.052;2022-11-20T05:05:08;100717.00;;;7.20
23208;BMP180;11773;52.570;13.052;2022-11-20T05:07:37;100712.00;;;7.20
23208;BMP180;11773;52.570;13.052;2022-11-20T05:10:07;100709.00;;;7.20
23208;BMP180;11773;52.570;13.052;2022-11-20T05:12:37;100707.00;;;7.20
23208;BMP180;11773;52.570;13.052;2022-11-20T05:15:07;100716.00;;;7.20
23208;BMP180;11773;52.570;13.052;2022-11-20T05:17:37;100707.00;;;7.20
23208;BMP180;11773;52.570;13.052;2022-11-20T05:20:07;100720.00;;;7.20
23208;BMP180;11773;52.570;13.052;2022-11-20T05:22:37;100721.00;;;7.20
23208;BMP180;11773;52.570;13.052;2022-11-20T05:25:06;100701.00;;;7.20
23208;BMP180;11773;52.570;13.052;2022-11-20T05:27:36;100705.00;;;7.20
23208;BMP180;11773;52.570;13.052;2022-11-20T05:30:06;100688.00;;;7.20
23208;BMP180;11773;52.570;13.052;2022-11-20T05:32:36;100691.00;;;7.20
23208;BMP180;11773;52.570;13.052;2022-11-20T05:35:05;100696.00;;;7.20
23208;BMP180;11773;52.570;13.052;2022-11-20T05:37:35;100692.00;;;7.20
23208;BMP180;11773;52.570;13.052;2022-11-20T05:40:05;100682.00;;;7.20
23208;BMP180;11773;52.570;13.052;2022-11-20T05:42:35;100689.00;;;7.20
23208;BMP180;11773;52.570;13.052;2022-11-20T05:45:05;100685.00;;;7.20
23208;BMP180;11773;52.570;13.052;2022-11-20T05:47:35;100698.00;;;7.20
23208;BMP180;11773;52.570;13.052;2022-11-20T05:50:04;100681.00;;;7.20
23208;BMP180;11773;52.570;13.052;2022-11-20T05:52:34;100683.00;;;7.20
23208;BMP180;11773;52.570;13.052;2022-11-20T05:55:04;100676.00;;;7.20
23208;BMP180;11773;52.570;13.052;2022-11-20T05:57:33;100674.00;;;7.20
23208;BMP180;11773;52.570;13.052;2022-11-20T06:00:05;100664.00;;;7.20
23208;BMP180;11773;52.570;13.052;2022-11-20T06:02:35;100669.00;;;7.20
23208;BMP180;11773;52.570;13.052;2022-11-20T06:05:06;100687.00;;;7.20
23208;BMP180;11773;52.570;13.052;2022-11-20T06:07:35;100688.00;;;7.20
23208;BMP180;11773;52.570;13.052;2022-11-20T06:10:05;100672.00;;;7.20
23208;BMP180;11773;52.570;13.052;2022-11-20T06:12:34;100675.00;;;7.20
23208;BMP180;11773;52.570;13.052;2022-11-20T06:15:05;100666.00;;;7.20
23208;BMP180;11773;52.570;13.052;2022-11-20T06:17:35;100670.00;;;7.20
23208;BMP180;11773;52.570;13.052;2022-11-20T06:20:05;100686.00;;;7.20
23208;BMP180;11773;52.570;13.052;2022-11-20T06:22:34;100672.00;;;7.20
23208;BMP180;11773;52.570;13.052;2022-11-20T06:25:04;100680.00;;;7.20
23208;BMP180;11773;52.570;13.052;2022-11-20T06:27:33;100679.00;;;7.20
23208;BMP180;11773;52.570;13.052;2022-11-20T06:30:04;100676.00;;;7.20
23208;BMP180;11773;52.570;13.052;2022-11-20T06:32:34;100684.00;;;7.20
23208;BMP180;11773;52.570;13.052;2022-11-20T06:35:03;100678.00;;;7.20
23208;BMP180;11773;52.570;13.052;2022-11-20T06:37:33;100682.00;;;7.20
23208;BMP180;11773;52.570;13.052;2022-11-20T06:40:04;100690.00;;;7.20
23208;BMP180;11773;52.570;13.052;2022-11-20T06:42:34;100674.00;;;7.20
23208;BMP180;11773;52.570;13.052;2022-11-20T06:45:03;100673.00;;;7.20
23208;BMP180;11773;52.570;13.052;2022-11-20T06:47:34;100692.00;;;7.20
23208;BMP180;11773;52.570;13.052;2022-11-20T06:50:03;100682.00;;;7.20
23208;BMP180;11773;52.570;13.052;2022-11-20T06:52:34;100680.00;;;7.20
23208;BMP180;11773;52.570;13.052;2022-11-20T06:55:05;100678.00;;;7.20
23208;BMP180;11773;52.570;13.052;2022-11-20T06:57:35;100667.00;;;7.20
23208;BMP180;11773;52.570;13.052;2022-11-20T07:00:05;100669.00;;;7.20
23208;BMP180;11773;52.570;13.052;2022-11-20T07:02:34;100664.00;;;7.20
23208;BMP180;11773;52.570;13.052;2022-11-20T07:05:04;100666.00;;;7.30
23208;BMP180;11773;52.570;13.052;2022-11-20T07:07:34;100676.00;;;7.30
23208;BMP180;11773;52.570;13.052;2022-11-20T07:10:03;100684.00;;;7.30
23208;BMP180;11773;52.570;13.052;2022-11-20T07:12:33;100676.00;;;7.30
23208;BMP180;11773;52.570;13.052;2022-11-20T07:15:03;100669.00;;;7.30
23208;BMP180;11773;52.570;13.052;2022-11-20T07:17:32;100674.00;;;7.30
23208;BMP180;11773;52.570;13.052;2022-11-20T07:20:02;100676.00;;;7.30
23208;BMP180;11773;52.570;13.052;2022-11-20T07:22:31;100672.00;;;7.30
23208;BMP180;11773;52.570;13.052;2022-11-20T07:25:01;100677.00;;;7.30
23208;BMP180;11773;52.570;13.052;2022-11-20T07:27:31;100679.00;;;7.30
23208;BMP180;11773;52.570;13.052;2022-11-20T07:30:00;100674.00;;;7.30
23208;BMP180;11773;52.570;13.052;2022-11-20T07:32:30;100671.00;;;7.30
23208;BMP180;11773;52.570;13.052;2022-11-20T07:34:59;100670.00;;;7.30
23208;BMP180;11773;52.570;13.052;2022-11-20T07:37:29;100665.00;;;7.30
23208;BMP180;11773;52.570;13.052;2022-11-20T07:39:58;100671.00;;;7.30
23208;BMP180;11773;52.570;13.052;2022-11-20T07:42:28;100657.00;;;7.30
23208;BMP180;11773;52.570;13.052;2022-11-20T07:44:57;100660.00;;;7.30
23208;BMP180;11773;52.570;13.052;2022-11-20T07:47:26;100658.00;;;7.30
23208;BMP180;11773;52.570;13.052;2022-11-20T07:49:56;100666.00;;;7.40
23208;BMP180;11773;52.570;13.052;2022-11-20T07:52:25;100669.00;;;7.40
23208;BMP180;11773;52.570;13.052;2022-11-20T07:54:55;100656.00;;;7.40
23208;BMP180;11773;52.570;13.052;2022-11-20T07:57:24;100664.00;;;7.40
23208;BMP180;11773;52.570;13.052;2022-11-20T07:59:55;100670.00;;;7.40
23208;BMP180;11773;52.570;13.052;2022-11-20T08:02:25;100672.00;;;7.40
23208;BMP180;11773;52.570;13.052;2022-11-20T08:04:55;100660.00;;;7.40
23208;BMP180;11773;52.570;13.052;2022-11-20T08:07:24;100657.00;;;7.40
23208;BMP180;11773;52.570;13.052;2022-11-20T08:09:54;100658.00;;;7.40
23208;BMP180;11773;52.570;13.052;2022-11-20T08:12:23;100654.00;;;7.40
23208;BMP180;11773;52.570;13.052;2022-11-20T08:15:10;100661.00;;;7.40
23208;BMP180;11773;52.570;13.052;2022-11-20T08:17:40;100671.00;;;7.40
23208;BMP180;11773;52.570;13.052;2022-11-20T08:20:12;100675.00;;;7.50
23208;BMP180;11773;52.570;13.052;2022-11-20T08:22:41;100666.00;;;7.50
23208;BMP180;11773;52.570;13.052;2022-11-20T08:25:11;100675.00;;;7.50
23208;BMP180;11773;52.570;13.052;2022-11-20T08:27:40;100656.00;;;7.50
23208;BMP180;11773;52.570;13.052;2022-11-20T08:30:11;100664.00;;;7.50
23208;BMP180;11773;52.570;13.052;2022-11-20T08:32:40;100668.00;;;7.50
23208;BMP180;11773;52.570;13.052;2022-11-20T08:35:10;100658.00;;;7.50
23208;BMP180;11773;52.570;13.052;2022-11-20T08:37:39;100664.00;;;7.50
23208;BMP180;11773;52.570;13.052;2022-11-20T08:40:11;100654.00;;;7.50
23208;BMP180;11773;52.570;13.052;2022-11-20T08:42:50;100670.00;;;7.50
23208;BMP180;11773;52.570;13.052;2022-11-20T08:45:20;100654.00;;;7.60
23208;BMP180;11773;52.570;13.052;2022-11-20T08:47:49;100651.00;;;7.60
23208;BMP180;11773;52.570;13.052;2022-11-20T08:50:19;100655.00;;;7.60
23208;BMP180;11773;52.570;13.052;2022-11-20T08:52:48;100646.00;;;7.60
23208;BMP180;11773;52.570;13.052;2022-11-20T08:55:18;100641.00;;;7.70
23208;BMP180;11773;52.570;13.052;2022-11-20T08:57:47;100639.00;;;7.70
23208;BMP180;11773;52.570;13.052;2022-11-20T09:00:18;100654.00;;;7.70
23208;BMP180;11773;52.570;13.052;2022-11-20T09:02:48;100646.00;;;7.70
23208;BMP180;11773;52.570;13.052;2022-11-20T09:05:17;100647.00;;;7.70
23208;BMP180;11773;52.570;13.052;2022-11-20T09:07:47;100650.00;;;7.80
23208;BMP180;11773;52.570;13.052;2022-11-20T09:10:16;100664.00;;;7.80
23208;BMP180;11773;52.570;13.052;2022-11-20T09:12:49;100650.00;;;7.80
23208;BMP180;11773;52.570;13.052;2022-11-20T09:15:20;100651.00;;;7.80
23208;BMP180;11773;52.570;13.052;2022-11-20T09:18:02;100667.00;;;7.80
23208;BMP180;11773;52.570;13.052;2022-11-20T09:20:33;100656.00;;;7.80
23208;BMP180;11773;52.570;13.052;2022-11-20T09:23:02;100652.00;;;7.90
23208;BMP180;11773;52.570;13.052;2022-11-20T09:25:32;100654.00;;;7.90
23208;BMP180;11773;52.570;13.052;2022-11-20T09:28:01;100654.00;;;7.90
23208;BMP180;11773;52.570;13.052;2022-11-20T09:30:31;100652.00;;;7.90
23208;BMP180;11773;52.570;13.052;2022-11-20T09:33:01;100656.00;;;7.90
23208;BMP180;11773;52.570;13.052;2022-11-20T09:35:30;100655.00;;;7.90
23208;BMP180;11773;52.570;13.052;2022-11-20T09:38:06;100656.00;;;8.00
23208;BMP180;11773;52.570;13.052;2022-11-20T09:40:34;100651.00;;;8.00
23208;BMP180;11773;52.570;13.052;2022-11-20T09:43:18;100645.00;;;8.00
23208;BMP180;11773;52.570;13.052;2022-11-20T09:46:04;100661.00;;;8.00
23208;BMP180;11773;52.570;13.052;2022-11-20T09:48:57;100656.00;;;8.00
23208;BMP180;11773;52.570;13.052;2022-11-20T09:51:49;100630.00;;;8.00
23208;BMP180;11773;52.570;13.052;2022-11-20T09:54:20;100642.00;;;7.90
23208;BMP180;11773;52.570;13.052;2022-11-20T09:57:00;100640.00;;;8.00
23208;BMP180;11773;52.570;13.052;2022-11-20T09:59:39;100632.00;;;8.00
23208;BMP180;11773;52.570;13.052;2022-11-20T10:05:42;100636.00;;;7.90
23208;BMP180;11773;52.570;13.052;2022-11-20T10:13:15;100631.00;;;7.90
23208;BMP180;11773;52.570;13.052;2022-11-20T10:17:00;100640.00;;;7.90
23208;BMP180;11773;52.570;13.052;2022-11-20T10:19:13;100636.00;;;7.90
23208;BMP180;11773;52.570;13.052;2022-11-20T10:22:39;100634.00;;;7.90
23208;BMP180;11773;52.570;13.052;2022-11-20T10:24:55;100632.00;;;7.80
23208;BMP180;11773;52.570;13.052;2022-11-20T10:28:19;100639.00;;;7.90
23208;BMP180;11773;52.570;13.052;2022-11-20T10:30:51;100613.00;;;7.80
23208;BMP180;11773;52.570;13.052;2022-11-20T10:33:33;100634.00;;;7.90
23208;BMP180;11773;52.570;13.052;2022-11-20T10:36:31;100621.00;;;7.90
23208;BMP180;11773;52.570;13.052;2022-11-20T10:39:29;100615.00;;;7.90
23208;BMP180;11773;52.570;13.052;2022-11-20T10:41:58;100608.00;;;7.90
23208;BMP180;11773;52.570;13.052;2022-11-20T10:44:30;100602.00;;;7.90
23208;BMP180;11773;52.570;13.052;2022-11-20T10:47:19;100603.00;;;8.00
23208;BMP180;11773;52.570;13.052;2022-11-20T10:49:53;100611.00;;;8.00
23208;BMP180;11773;52.570;13.052;2022-11-20T11:01:23;100614.00;;;8.00
23208;BMP180;11773;52.570;13.052;2022-11-20T11:03:57;100599.00;;;8.00
23208;BMP180;11773;52.570;13.052;2022-11-20T11:06:46;100610.00;;;8.10
23208;BMP180;11773;52.570;13.052;2022-11-20T11:09:25;100601.00;;;8.00
23208;BMP180;11773;52.570;13.052;2022-11-20T11:11:53;100614.00;;;8.00
23208;BMP180;11773;52.570;13.052;2022-11-20T11:14:22;100601.00;;;8.00
23208;BMP180;11773;52.570;13.052;2022-11-20T11:16:56;100609.00;;;8.10
23208;BMP180;11773;52.570;13.052;2022-11-20T11:19:26;100612.00;;;8.00
23208;BMP180;11773;52.570;13.052;2022-11-20T11:21:57;100607.00;;;8.00
23208;BMP180;11773;52.570;13.052;2022-11-20T11:24:29;100605.00;;;8.00
23208;BMP180;11773;52.570;13.052;2022-11-20T11:27:04;100600.00;;;8.00
23208;BMP180;11773;52.570;13.052;2022-11-20T11:29:36;100597.00;;;8.00
23208;BMP180;11773;52.570;13.052;2022-11-20T11:32:17;100590.00;;;8.10
23208;BMP180;11773;52.570;13.052;2022-11-20T11:35:03;100597.00;;;8.10
23208;BMP180;11773;52.570;13.052;2022-11-20T11:37:38;100582.00;;;8.10
23208;BMP180;11773;52.570;13.052;2022-11-20T11:40:11;100581.00;;;8.10
23208;BMP180;11773;52.570;13.052;2022-11-20T11:42:56;100591.00;;;8.10
23208;BMP180;11773;52.570;13.052;2022-11-20T11:45:26;100576.00;;;8.10
23208;BMP180;11773;52.570;13.052;2022-11-20T11:48:00;100573.00;;;8.20
23208;BMP180;11773;52.570;13.052;2022-11-20T11:50:30;100562.00;;;8.20
23208;BMP180;11773;52.570;13.052;2022-11-20T11:53:21;100578.00;;;8.20
23208;BMP180;11773;52.570;13.052;2022-11-20T11:56:08;100572.00;;;8.20
23208;BMP180;11773;52.570;13.052;2022-11-20T11:58:52;100589.00;;;8.10
23208;BMP180;11773;52.570;13.052;2022-11-20T12:01:43;100575.00;;;8.10
23208;BMP180;11773;52.570;13.052;2022-11-20T12:07:37;100568.00;;;8.10
23208;BMP180;11773;52.570;13.052;2022-11-20T12:10:17;100564.00;;;8.10
23208;BMP180;11773;52.570;13.052;2022-11-20T12:12:50;100583.00;;;8.10
23208;BMP180;11773;52.570;13.052;2022-11-20T12:15:34;100564.00;;;8.20
23208;BMP180;11773;52.570;13.052;2022-11-20T12:18:09;100555.00;;;8.20
23208;BMP180;11773;52.570;13.052;2022-11-20T12:20:42;100566.00;;;8.20
23208;BMP180;11773;52.570;13.052;2022-11-20T12:23:34;100569.00;;;8.20
23208;BMP180;11773;52.570;13.052;2022-11-20T12:26:00;100564.00;;;8.20
23208;BMP180;11773;52.570;13.052;2022-11-20T12:31:30;100556.00;;;8.30
23208;BMP180;11773;52.570;13.052;2022-11-20T12:34:05;100558.00;;;8.20
23208;BMP180;11773;52.570;13.052;2022-11-20T12:36:49;100553.00;;;8.20
23208;BMP180;11773;52.570;13.052;2022-11-20T12:42:11;100540.00;;;8.30
23208;BMP180;11773;52.570;13.052;2022-11-20T12:45:10;100542.00;;;8.20
23208;BMP180;11773;52.570;13.052;2022-11-20T12:48:16;100546.00;;;8.20
23208;BMP180;11773;52.570;13.052;2022-11-20T12:51:11;100541.00;;;8.20
23208;BMP180;11773;52.570;13.052;2022-11-20T12:54:17;100533.00;;;8.20
23208;BMP180;11773;52.570;13.052;2022-11-20T12:56:57;100540.00;;;8.20
23208;BMP180;11773;52.570;13.052;2022-11-20T12:59:48;100544.00;;;8.20
23208;BMP180;11773;52.570;13.052;2022-11-20T13:05:55;100531.00;;;8.20
23208;BMP180;11773;52.570;13.052;2022-11-20T13:08:29;100524.00;;;8.10
23208;BMP180;11773;52.570;13.052;2022-11-20T13:11:09;100533.00;;;8.20
23208;BMP180;11773;52.570;13.052;2022-11-20T13:19:23;100512.00;;;8.20
23208;BMP180;11773;52.570;13.052;2022-11-20T13:21:53;100514.00;;;8.20
23208;BMP180;11773;52.570;13.052;2022-11-20T13:24:31;100511.00;;;8.20
23208;BMP180;11773;52.570;13.052;2022-11-20T13:29:47;100526.00;;;8.20
23208;BMP180;11773;52.570;13.052;2022-11-20T13:32:20;100521.00;;;8.20
23208;BMP180;11773;52.570;13.052;2022-11-20T13:34:56;100518.00;;;8.20
23208;BMP180;11773;52.570;13.052;2022-11-20T13:37:36;100513.00;;;8.20
23208;BMP180;11773;52.570;13.052;2022-11-20T13:40:12;100524.00;;;8.20
23208;BMP180;11773;52.570;13.052;2022-11-20T13:43:22;100518.00;;;8.10
23208;BMP180;11773;52.570;13.052;2022-11-20T13:46:08;100516.00;;;8.10
23208;BMP180;11773;52.570;13.052;2022-11-20T13:48:44;100520.00;;;8.10
23208;BMP180;11773;52.570;13.052;2022-11-20T13:51:28;100534.00;;;8.10
23208;BMP180;11773;52.570;13.052;2022-11-20T13:57:29;100522.00;;;8.10
23208;BMP180;11773;52.570;13.052;2022-11-20T14:00:14;100523.00;;;8.10
23208;BMP180;11773;52.570;13.052;2022-11-20T14:05:22;100526.00;;;8.10
23208;BMP180;11773;52.570;13.052;2022-11-20T14:07:54;100535.00;;;8.10
23208;BMP180;11773;52.570;13.052;2022-11-20T14:10:28;100518.00;;;8.10
23208;BMP180;11773;52.570;13.052;2022-11-20T14:13:19;100525.00;;;8.20
23208;BMP180;11773;52.570;13.052;2022-11-20T14:15:46;100518.00;;;8.20
23208;BMP180;11773;52.570;13.052;2022-11-20T14:18:21;100525.00;;;8.20
23208;BMP180;11773;52.570;13.052;2022-11-20T14:20:50;100518.00;;;8.20
23208;BMP180;11773;52.570;13.052;2022-11-20T14:23:28;100501.00;;;8.20
23208;BMP180;11773;52.570;13.052;2022-11-20T14:25:58;100505.00;;;8.20
23208;BMP180;11773;52.570;13.052;2022-11-20T14:28:30;100509.00;;;8.20
23208;BMP180;11773;52.570;13.052;2022-11-20T14:31:00;100523.00;;;8.20
23208;BMP180;11773;52.570;13.052;2022-11-20T14:33:31;100508.00;;;8.20
23208;BMP180;11773;52.570;13.052;2022-11-20T14:36:01;100507.00;;;8.30
23208;BMP180;11773;52.570;13.052;2022-11-20T14:38:32;100529.00;;;8.30
23208;BMP180;11773;52.570;13.052;2022-11-20T14:41:16;100510.00;;;8.30
23208;BMP180;11773;52.570;13.052;2022-11-20T14:44:02;100517.00;;;8.30
23208;BMP180;11773;52.570;13.052;2022-11-20T14:46:17;100508.00;;;8.30
23208;BMP180;11773;52.570;13.052;2022-11-20T14:48:56;100507.00;;;8.30
23208;BMP180;11773;52.570;13.052;2022-11-20T14:51:39;100509.00;;;8.30
23208;BMP180;11773;52.570;13.052;2022-11-20T14:54:19;100505.00;;;8.20
23208;BMP180;11773;52.570;13.052;2022-11-20T14:57:02;100505.00;;;8.20
23208;BMP180;11773;52.570;13.052;2022-11-20T14:59:34;100519.00;;;8.30
23208;BMP180;11773;52.570;13.052;2022-11-20T15:02:11;100508.00;;;8.30
23208;BMP180;11773;52.570;13.052;2022-11-20T15:04:58;100495.00;;;8.30
23208;BMP180;11773;52.570;13.052;2022-11-20T15:07:36;100515.00;;;8.30
23208;BMP180;11773;52.570;13.052;2022-11-20T15:10:10;100500.00;;;8.30
23208;BMP180;11773;52.570;13.052;2022-11-20T15:12:52;100504.00;;;8.30
23208;BMP180;11773;52.570;13.052;2022-11-20T15:15:45;100502.00;;;8.30
23208;BMP180;11773;52.570;13.052;2022-11-20T15:18:18;100506.00;;;8.30
23208;BMP180;11773;52.570;13.052;2022-11-20T15:20:49;100501.00;;;8.20